Time;durP1;ratioP1;P1;durP2;ratioP2;P2;SDS_P1;SDS_P2;PMS_P1;PMS_P2;Temp;Humidity;BMP_temperature;BMP_pressure;BME280_temperature;BME280_humidity;BME280_pressure;Samples;Min_cycle;Max_cycle;Signal;HPM_P1;HPM_P2
2022/02/22 00:01:15;;;;;;;43.65;7.20;;;;;;;;;;5034808;28;21565;-64
2022/02/22 00:03:41;;;;;;;31.83;5.10;;;;;;;;;;5038150;28;20086;-64
2022/02/22 00:06:07;;;;;;;40.50;5.70;;;;;;;;;;5036690;28;20045;-64
2022/02/22 00:08:34;;;;;;;67.95;9.35;;;;;;;;;;5052616;28;20127;-64
2022/02/22 00:11:00;;;;;;;40.42;7.45;;;;;;;;;;5044186;28;20061;-64
2022/02/22 00:13:27;;;;;;;47.78;6.68;;;;;;;;;;5038407;28;20052;-64
2022/02/22 00:15:53;;;;;;;48.47;7.45;;;;;;;;;;5042528;28;20048;-64
2022/02/22 00:18:20;;;;;;;43.47;6.75;;;;;;;;;;5041278;28;20096;-64
2022/02/22 00:20:46;;;;;;;47.17;8.07;;;;;;;;;;5042310;28;20041;-64
2022/02/22 00:23:13;;;;;;;47.17;6.70;;;;;;;;;;5040455;28;20489;-63
2022/02/22 00:25:39;;;;;;;48.97;7.88;;;;;;;;;;5052954;28;20053;-64
2022/02/22 00:28:05;;;;;;;47.15;8.30;;;;;;;;;;5073491;28;20166;-64
2022/02/22 00:30:33;;;;;;;43.13;7.60;;;;;;;;;;5040098;28;20492;-64
2022/02/22 00:32:59;;;;;;;41.17;6.30;;;;;;;;;;5037293;28;20049;-64
2022/02/22 00:35:25;;;;;;;42.13;7.20;;;;;;;;;;5038488;28;20045;-64
2022/02/22 00:37:51;;;;;;;38.10;6.10;;;;;;;;;;5043735;28;20041;-64
2022/02/22 00:40:18;;;;;;;38.75;5.78;;;;;;;;;;5038825;28;20037;-63
2022/02/22 00:42:44;;;;;;;45.58;6.22;;;;;;;;;;5041128;28;20041;-64
2022/02/22 00:45:11;;;;;;;37.38;5.85;;;;;;;;;;5035689;28;20095;-64
2022/02/22 00:47:37;;;;;;;39.97;5.88;;;;;;;;;;5040365;28;20076;-64
2022/02/22 00:50:04;;;;;;;47.58;6.15;;;;;;;;;;5053789;28;20045;-64
2022/02/22 00:52:30;;;;;;;40.63;6.95;;;;;;;;;;5037065;28;20481;-64
2022/02/22 00:54:56;;;;;;;38.85;5.95;;;;;;;;;;5031957;28;20061;-64
2022/02/22 00:57:22;;;;;;;43.45;5.68;;;;;;;;;;5032069;28;20096;-64
2022/02/22 00:59:49;;;;;;;35.78;5.70;;;;;;;;;;5033401;28;20052;-64
2022/02/22 01:02:15;;;;;;;31.08;8.73;;;;;;;;;;5043441;28;20438;-64
2022/02/22 01:04:41;;;;;;;33.05;5.60;;;;;;;;;;5049010;28;20098;-64
2022/02/22 01:07:07;;;;;;;33.97;6.57;;;;;;;;;;5039709;28;20409;-64
2022/02/22 01:09:33;;;;;;;33.17;6.22;;;;;;;;;;5054215;28;20489;-63
2022/02/22 01:12:00;;;;;;;31.05;6.75;;;;;;;;;;5041871;28;20438;-64
2022/02/22 01:14:26;;;;;;;42.28;6.60;;;;;;;;;;5040797;28;20103;-64
2022/02/22 01:16:52;;;;;;;42.55;7.10;;;;;;;;;;5035812;28;20048;-64
2022/02/22 01:19:18;;;;;;;33.42;5.70;;;;;;;;;;5053255;28;20041;-64
2022/02/22 01:21:44;;;;;;;39.45;5.75;;;;;;;;;;5047194;28;20049;-64
2022/02/22 01:24:10;;;;;;;40.88;7.65;;;;;;;;;;5048007;28;20052;-64
2022/02/22 01:26:37;;;;;;;35.88;5.53;;;;;;;;;;5042350;28;20041;-64
2022/02/22 01:29:04;;;;;;;33.15;6.22;;;;;;;;;;5048689;28;20489;-64
2022/02/22 01:31:30;;;;;;;45.40;8.30;;;;;;;;;;5046407;28;20437;-64
2022/02/22 01:33:57;;;;;;;37.08;6.60;;;;;;;;;;5046861;28;20428;-64
2022/02/22 01:36:23;;;;;;;47.55;7.75;;;;;;;;;;5046990;28;20049;-64
2022/02/22 01:38:51;;;;;;;38.38;8.50;;;;;;;;;;5043658;28;20177;-64
2022/02/22 01:41:18;;;;;;;43.40;5.80;;;;;;;;;;5050967;28;20135;-64
2022/02/22 01:43:44;;;;;;;36.05;5.30;;;;;;;;;;5075399;28;20045;-64
2022/02/22 01:46:11;;;;;;;42.67;6.72;;;;;;;;;;5045913;28;20488;-64
2022/02/22 01:48:37;;;;;;;35.53;5.38;;;;;;;;;;5061749;28;20045;-64
2022/02/22 01:51:03;;;;;;;37.40;5.38;;;;;;;;;;5038523;28;20049;-64
2022/02/22 01:53:29;;;;;;;31.80;6.47;;;;;;;;;;5046955;28;20044;-64
2022/02/22 01:55:55;;;;;;;40.88;6.03;;;;;;;;;;5045488;28;20413;-64
2022/02/22 01:58:22;;;;;;;40.30;6.25;;;;;;;;;;5044267;28;20061;-64
2022/02/22 02:00:48;;;;;;;35.38;6.20;;;;;;;;;;5040421;28;20033;-64
2022/02/22 02:03:14;;;;;;;38.05;5.05;;;;;;;;;;5048569;28;20036;-64
2022/02/22 02:05:41;;;;;;;32.50;5.63;;;;;;;;;;5044575;28;20400;-64
2022/02/22 02:08:07;;;;;;;31.08;4.65;;;;;;;;;;5044429;28;20040;-64
2022/02/22 02:10:33;;;;;;;40.28;5.82;;;;;;;;;;5045602;28;20071;-64
2022/02/22 02:12:59;;;;;;;35.67;4.63;;;;;;;;;;5043951;28;20033;-64
2022/02/22 02:15:25;;;;;;;33.70;5.63;;;;;;;;;;5050069;28;20103;-64
2022/02/22 02:17:51;;;;;;;35.22;4.57;;;;;;;;;;5044136;28;20052;-63
2022/02/22 02:20:18;;;;;;;29.92;4.68;;;;;;;;;;5040131;28;20054;-64
2022/02/22 02:22:44;;;;;;;31.90;4.75;;;;;;;;;;5039975;28;20060;-64
2022/02/22 02:25:11;;;;;;;51.03;5.10;;;;;;;;;;5037549;28;21482;-64
2022/02/22 02:27:37;;;;;;;39.33;6.15;;;;;;;;;;5042147;28;20044;-64
2022/02/22 02:30:04;;;;;;;28.55;5.72;;;;;;;;;;5058753;28;20052;-63
2022/02/22 02:32:30;;;;;;;39.67;6.85;;;;;;;;;;5041663;28;20069;-64
2022/02/22 02:34:57;;;;;;;30.15;4.68;;;;;;;;;;5040719;28;20131;-64
2022/02/22 02:37:23;;;;;;;38.17;6.07;;;;;;;;;;5040046;28;20045;-64
2022/02/22 02:39:49;;;;;;;45.00;7.30;;;;;;;;;;5048070;28;20041;-64
2022/02/22 02:42:17;;;;;;;34.38;5.63;;;;;;;;;;5042322;28;20092;-64
2022/02/22 02:44:44;;;;;;;44.95;6.20;;;;;;;;;;5038334;28;20056;-64
2022/02/22 02:47:10;;;;;;;37.13;6.70;;;;;;;;;;5041072;28;20133;-64
2022/02/22 02:49:38;;;;;;;48.15;9.15;;;;;;;;;;5038523;28;20049;-64
2022/02/22 02:52:04;;;;;;;37.00;5.38;;;;;;;;;;5040096;28;20409;-64
2022/02/22 02:54:30;;;;;;;36.08;6.25;;;;;;;;;;5041002;28;20126;-65
2022/02/22 02:56:56;;;;;;;30.63;5.88;;;;;;;;;;5037665;28;20041;-64
2022/02/22 02:59:23;;;;;;;35.47;5.32;;;;;;;;;;5072351;28;20080;-64
2022/02/22 03:01:49;;;;;;;39.50;6.47;;;;;;;;;;5044563;28;20042;-64
2022/02/22 03:04:16;;;;;;;38.67;6.43;;;;;;;;;;5042011;28;20053;-64
2022/02/22 03:06:42;;;;;;;37.42;5.82;;;;;;;;;;5040862;28;20045;-64
2022/02/22 03:09:09;;;;;;;35.10;6.78;;;;;;;;;;5044916;28;20382;-64
2022/02/22 03:11:36;;;;;;;36.88;5.55;;;;;;;;;;5073772;28;20124;-64
2022/02/22 03:14:02;;;;;;;38.58;6.35;;;;;;;;;;5042468;28;20064;-64
2022/02/22 03:16:28;;;;;;;44.53;7.38;;;;;;;;;;5059376;28;20436;-64
2022/02/22 03:18:55;;;;;;;28.77;4.28;;;;;;;;;;5040295;28;20746;-64
2022/02/22 03:21:21;;;;;;;47.17;7.03;;;;;;;;;;5041224;28;20079;-64
2022/02/22 03:23:48;;;;;;;45.05;6.60;;;;;;;;;;5037937;28;20176;-64
2022/02/22 03:26:14;;;;;;;31.95;6.68;;;;;;;;;;5045056;28;20060;-64
2022/02/22 03:28:40;;;;;;;30.15;5.00;;;;;;;;;;5029400;28;20049;-64
2022/02/22 03:31:07;;;;;;;38.60;6.38;;;;;;;;;;5035340;28;20056;-64
2022/02/22 03:33:34;;;;;;;41.75;8.43;;;;;;;;;;5033534;28;20046;-64
2022/02/22 03:36:01;;;;;;;47.70;7.60;;;;;;;;;;5073336;28;20483;-64
2022/02/22 03:38:27;;;;;;;39.63;6.10;;;;;;;;;;5044746;28;20495;-64
2022/02/22 03:40:53;;;;;;;38.25;6.35;;;;;;;;;;5041157;28;20191;-64
2022/02/22 03:43:19;;;;;;;52.00;7.20;;;;;;;;;;5044170;28;20037;-64
2022/02/22 03:45:46;;;;;;;40.25;5.68;;;;;;;;;;5044731;28;20049;-64
2022/02/22 03:48:12;;;;;;;46.15;7.95;;;;;;;;;;5043258;28;20076;-64
2022/02/22 03:50:38;;;;;;;35.70;5.55;;;;;;;;;;5044419;28;20041;-64
2022/02/22 03:53:04;;;;;;;29.42;7.15;;;;;;;;;;5045451;28;20047;-64
2022/02/22 03:55:31;;;;;;;34.05;5.45;;;;;;;;;;5040957;28;20369;-64
2022/02/22 03:57:57;;;;;;;33.75;5.88;;;;;;;;;;5036494;28;20049;-64
2022/02/22 04:00:24;;;;;;;43.65;6.50;;;;;;;;;;5038747;28;20515;-63
2022/02/22 04:02:50;;;;;;;38.97;6.15;;;;;;;;;;5070051;28;20041;-64
2022/02/22 04:05:18;;;;;;;34.70;5.88;;;;;;;;;;5040781;28;20068;-64
2022/02/22 04:07:44;;;;;;;41.72;6.07;;;;;;;;;;5039547;28;20043;-64
2022/02/22 04:10:12;;;;;;;38.10;7.07;;;;;;;;;;5035911;28;20057;-64
2022/02/22 04:12:38;;;;;;;37.90;6.53;;;;;;;;;;5039925;28;20063;-64
2022/02/22 04:15:05;;;;;;;38.53;5.30;;;;;;;;;;5038424;28;20119;-64
2022/02/22 04:17:32;;;;;;;38.97;6.30;;;;;;;;;;5053135;28;20065;-64
2022/02/22 04:19:59;;;;;;;39.70;5.57;;;;;;;;;;5039712;28;20127;-64
2022/02/22 04:22:25;;;;;;;45.75;6.00;;;;;;;;;;5039984;28;20548;-63
2022/02/22 04:24:51;;;;;;;33.60;5.55;;;;;;;;;;5035422;28;20048;-63
2022/02/22 04:27:17;;;;;;;46.50;6.55;;;;;;;;;;5043027;28;20041;-64
2022/02/22 04:29:44;;;;;;;30.50;5.00;;;;;;;;;;5037359;28;20044;-64
2022/02/22 04:32:10;;;;;;;50.08;6.65;;;;;;;;;;5035685;28;20359;-63
2022/02/22 04:34:36;;;;;;;40.00;5.90;;;;;;;;;;5038063;28;20068;-64
2022/02/22 04:37:03;;;;;;;38.65;7.43;;;;;;;;;;5041279;28;20239;-64
2022/02/22 04:39:29;;;;;;;41.03;5.78;;;;;;;;;;5044491;28;20415;-63
2022/02/22 04:41:55;;;;;;;39.78;5.60;;;;;;;;;;5039533;28;20042;-63
2022/02/22 04:44:22;;;;;;;36.10;4.97;;;;;;;;;;5054609;28;20041;-64
2022/02/22 04:46:48;;;;;;;38.55;4.78;;;;;;;;;;5084084;28;20076;-64
2022/02/22 04:49:14;;;;;;;32.05;5.63;;;;;;;;;;5055365;28;20053;-63
2022/02/22 04:51:42;;;;;;;33.55;6.28;;;;;;;;;;5052711;28;20039;-63
2022/02/22 04:54:08;;;;;;;42.85;5.65;;;;;;;;;;5042761;28;20041;-64
2022/02/22 04:56:35;;;;;;;38.90;5.55;;;;;;;;;;5034293;28;20061;-63
2022/02/22 04:59:01;;;;;;;36.05;5.45;;;;;;;;;;5073655;28;20053;-64
2022/02/22 05:01:28;;;;;;;46.40;8.50;;;;;;;;;;5068736;28;20048;-64
2022/02/22 05:03:54;;;;;;;40.72;8.52;;;;;;;;;;5042812;28;20080;-64
2022/02/22 05:06:20;;;;;;;38.92;7.53;;;;;;;;;;5048412;28;20048;-64
2022/02/22 05:08:46;;;;;;;40.65;7.75;;;;;;;;;;5046380;28;20128;-64
2022/02/22 05:11:13;;;;;;;51.22;7.90;;;;;;;;;;5043470;28;20041;-64
2022/02/22 05:13:39;;;;;;;50.10;7.63;;;;;;;;;;5042547;28;20869;-64
2022/02/22 05:16:06;;;;;;;42.70;6.10;;;;;;;;;;5045916;28;20378;-63
2022/02/22 05:18:32;;;;;;;38.60;6.05;;;;;;;;;;5047410;28;20044;-64
2022/02/22 05:20:59;;;;;;;41.10;8.38;;;;;;;;;;5077138;28;20096;-64
2022/02/22 05:23:27;;;;;;;51.25;7.93;;;;;;;;;;5044459;28;20046;-64
2022/02/22 05:25:53;;;;;;;37.85;5.82;;;;;;;;;;5044744;28;20048;-64
2022/02/22 05:28:23;;;;;;;45.20;8.43;;;;;;;;;;5042898;28;20051;-64
2022/02/22 05:30:50;;;;;;;42.83;7.45;;;;;;;;;;5046106;28;20548;-64
2022/02/22 05:33:17;;;;;;;51.33;6.18;;;;;;;;;;5052140;28;20338;-64
2022/02/22 05:35:44;;;;;;;39.33;5.78;;;;;;;;;;5043772;28;20037;-63
2022/02/22 05:38:10;;;;;;;44.00;7.30;;;;;;;;;;5048701;28;20047;-64
2022/02/22 05:40:36;;;;;;;35.03;5.70;;;;;;;;;;5040210;28;20042;-64
2022/02/22 05:43:03;;;;;;;36.47;6.07;;;;;;;;;;5067741;28;20124;-64
2022/02/22 05:45:29;;;;;;;52.13;8.07;;;;;;;;;;5043269;28;20045;-64
2022/02/22 05:47:55;;;;;;;35.47;6.40;;;;;;;;;;5044539;28;20048;-63
2022/02/22 05:50:21;;;;;;;30.63;5.30;;;;;;;;;;5044089;28;20430;-64
2022/02/22 05:52:47;;;;;;;45.67;5.20;;;;;;;;;;5044944;28;20049;-63
2022/02/22 05:55:14;;;;;;;29.08;4.93;;;;;;;;;;5045778;28;20067;-64
2022/02/22 05:57:40;;;;;;;36.95;6.72;;;;;;;;;;5077837;28;20081;-64
2022/02/22 06:00:08;;;;;;;37.78;6.13;;;;;;;;;;5044306;28;20092;-63
2022/02/22 06:02:35;;;;;;;43.40;5.63;;;;;;;;;;5045041;28;20044;-63
2022/02/22 06:05:01;;;;;;;45.50;6.63;;;;;;;;;;5042959;28;20049;-64
2022/02/22 06:07:29;;;;;;;34.35;5.97;;;;;;;;;;5056774;28;20100;-64
2022/02/22 06:09:56;;;;;;;42.03;6.07;;;;;;;;;;5040298;28;20834;-64
2022/02/22 06:12:22;;;;;;;41.03;6.35;;;;;;;;;;5041703;28;20578;-64
2022/02/22 06:14:49;;;;;;;44.25;5.40;;;;;;;;;;5041467;28;20045;-64
2022/02/22 06:17:15;;;;;;;39.33;6.07;;;;;;;;;;5053376;28;20135;-64
2022/02/22 06:19:41;;;;;;;39.13;4.93;;;;;;;;;;5054339;28;20123;-64
2022/02/22 06:22:07;;;;;;;41.45;5.70;;;;;;;;;;5041511;28;20377;-64
2022/02/22 06:24:33;;;;;;;38.05;4.60;;;;;;;;;;5044545;28;20493;-63
2022/02/22 06:27:00;;;;;;;41.63;4.93;;;;;;;;;;5040682;28;20075;-64
2022/02/22 06:29:26;;;;;;;39.03;7.57;;;;;;;;;;5080701;28;20045;-64
2022/02/22 06:31:52;;;;;;;30.60;4.35;;;;;;;;;;5046449;28;20033;-63
2022/02/22 06:34:19;;;;;;;48.38;7.63;;;;;;;;;;5042649;28;20349;-63
2022/02/22 06:36:45;;;;;;;39.20;7.18;;;;;;;;;;5044815;28;20056;-63
2022/02/22 06:39:11;;;;;;;49.45;6.57;;;;;;;;;;5041209;28;20052;-63
2022/02/22 06:41:37;;;;;;;33.90;5.10;;;;;;;;;;5047542;28;20128;-63
2022/02/22 06:44:05;;;;;;;35.65;6.75;;;;;;;;;;5035774;28;20466;-64
2022/02/22 06:46:31;;;;;;;32.35;5.40;;;;;;;;;;5036208;28;20068;-64
2022/02/22 06:48:58;;;;;;;48.35;5.68;;;;;;;;;;5040859;28;20041;-64
2022/02/22 06:51:24;;;;;;;31.75;5.32;;;;;;;;;;5037098;28;21699;-65
2022/02/22 06:53:52;;;;;;;41.67;6.20;;;;;;;;;;5039816;28;20043;-64
2022/02/22 06:56:18;;;;;;;35.55;5.28;;;;;;;;;;5040707;28;20053;-64
2022/02/22 06:58:44;;;;;;;40.08;5.18;;;;;;;;;;5039776;28;20536;-64
2022/02/22 07:01:10;;;;;;;22.98;5.13;;;;;;;;;;5068332;28;20415;-64
2022/02/22 07:03:37;;;;;;;28.73;5.15;;;;;;;;;;5069480;28;20068;-64
2022/02/22 07:06:03;;;;;;;29.08;4.82;;;;;;;;;;5038049;28;20654;-63
2022/02/22 07:08:29;;;;;;;29.63;4.32;;;;;;;;;;5055111;28;20180;-64
2022/02/22 07:10:55;;;;;;;36.50;4.60;;;;;;;;;;5042835;28;20041;-64
2022/02/22 07:13:22;;;;;;;39.45;4.85;;;;;;;;;;5073524;28;20471;-64
2022/02/22 07:15:48;;;;;;;40.10;5.82;;;;;;;;;;5077195;28;20051;-64
2022/02/22 07:18:14;;;;;;;44.70;5.32;;;;;;;;;;5060445;28;20041;-64
2022/02/22 07:20:40;;;;;;;48.88;4.75;;;;;;;;;;5040058;28;20060;-64
2022/02/22 07:23:07;;;;;;;40.05;5.25;;;;;;;;;;5043135;28;20059;-64
2022/02/22 07:25:33;;;;;;;35.03;5.85;;;;;;;;;;5038498;28;20055;-64
2022/02/22 07:28:01;;;;;;;32.70;5.18;;;;;;;;;;5034908;28;20047;-64
2022/02/22 07:30:27;;;;;;;43.15;5.20;;;;;;;;;;5037544;28;20048;-64
2022/02/22 07:32:55;;;;;;;41.38;5.32;;;;;;;;;;5038264;28;20045;-65
2022/02/22 07:35:21;;;;;;;48.88;7.65;;;;;;;;;;5039718;28;20420;-64
2022/02/22 07:37:47;;;;;;;52.97;6.03;;;;;;;;;;5071680;28;20036;-64
2022/02/22 07:40:15;;;;;;;47.25;4.90;;;;;;;;;;5038193;28;20037;-64
2022/02/22 07:42:41;;;;;;;53.65;9.65;;;;;;;;;;5035648;28;20110;-64
2022/02/22 07:45:08;;;;;;;41.17;5.38;;;;;;;;;;5036784;28;20135;-64
2022/02/22 07:47:34;;;;;;;43.75;5.43;;;;;;;;;;5034471;28;20045;-64
2022/02/22 07:50:01;;;;;;;32.95;5.75;;;;;;;;;;5036862;28;20048;-64
2022/02/22 07:52:27;;;;;;;38.85;5.47;;;;;;;;;;5036857;28;20064;-64
2022/02/22 07:54:54;;;;;;;40.95;6.10;;;;;;;;;;5039237;28;20060;-64
2022/02/22 07:57:21;;;;;;;30.45;4.13;;;;;;;;;;5041599;28;20045;-64
2022/02/22 07:59:47;;;;;;;44.55;7.70;;;;;;;;;;5037083;28;20143;-64
2022/02/22 08:02:13;;;;;;;38.13;5.00;;;;;;;;;;5071258;28;20110;-64
2022/02/22 08:04:40;;;;;;;38.42;4.80;;;;;;;;;;5042868;28;20432;-64
2022/02/22 08:07:07;;;;;;;36.28;5.82;;;;;;;;;;5043167;28;20045;-64
2022/02/22 08:09:33;;;;;;;52.38;9.13;;;;;;;;;;5037109;28;20080;-64
2022/02/22 08:11:59;;;;;;;39.78;5.65;;;;;;;;;;5042176;28;20033;-63
2022/02/22 08:14:26;;;;;;;31.77;5.32;;;;;;;;;;5039449;28;20044;-64
2022/02/22 08:16:57;;;;;;;30.90;5.53;;;;;;;;;;5039963;28;20124;-64
2022/02/22 08:19:24;;;;;;;32.90;5.78;;;;;;;;;;5036886;28;20091;-64
2022/02/22 08:21:50;;;;;;;39.92;6.03;;;;;;;;;;5040478;28;20037;-64
2022/02/22 08:24:16;;;;;;;34.75;6.93;;;;;;;;;;5039330;28;20082;-64
2022/02/22 08:26:43;;;;;;;49.15;6.85;;;;;;;;;;5044099;28;20134;-64
2022/02/22 08:29:09;;;;;;;32.45;4.40;;;;;;;;;;5034732;28;20100;-64
2022/02/22 08:31:35;;;;;;;30.75;6.70;;;;;;;;;;5046899;28;20040;-64
2022/02/22 08:34:02;;;;;;;36.92;6.22;;;;;;;;;;5038182;28;20068;-64
2022/02/22 08:36:29;;;;;;;28.20;4.05;;;;;;;;;;5039504;28;21246;-64
2022/02/22 08:38:55;;;;;;;35.45;4.90;;;;;;;;;;5055095;28;20058;-64
2022/02/22 08:41:22;;;;;;;33.25;4.53;;;;;;;;;;5038899;28;20053;-64
2022/02/22 08:43:50;;;;;;;35.08;6.13;;;;;;;;;;5040415;28;20037;-64
2022/02/22 08:46:16;;;;;;;30.83;5.03;;;;;;;;;;5044005;28;20045;-64
2022/02/22 08:48:43;;;;;;;31.35;5.18;;;;;;;;;;5035238;28;20049;-64
2022/02/22 08:51:09;;;;;;;30.17;3.65;;;;;;;;;;5037045;28;20064;-64
2022/02/22 08:53:35;;;;;;;41.80;6.13;;;;;;;;;;5045597;28;20080;-64
2022/02/22 08:56:03;;;;;;;32.45;3.80;;;;;;;;;;5038032;28;20064;-64
2022/02/22 08:58:29;;;;;;;35.10;4.82;;;;;;;;;;5075155;28;20486;-64
2022/02/22 09:00:55;;;;;;;35.50;4.05;;;;;;;;;;5039210;28;20072;-64
2022/02/22 09:03:21;;;;;;;27.15;5.60;;;;;;;;;;5039374;28;20047;-64
2022/02/22 09:05:47;;;;;;;21.63;3.35;;;;;;;;;;5040624;28;20127;-64
2022/02/22 09:08:15;;;;;;;19.23;3.92;;;;;;;;;;5038207;28;20562;-64
2022/02/22 09:10:44;;;;;;;20.95;4.78;;;;;;;;;;5039125;28;20056;-64
2022/02/22 09:13:11;;;;;;;30.67;4.95;;;;;;;;;;5035898;28;20057;-64
2022/02/22 09:15:37;;;;;;;28.08;4.13;;;;;;;;;;5039788;28;20434;-64
2022/02/22 09:18:03;;;;;;;31.70;4.95;;;;;;;;;;5036210;28;20041;-66
2022/02/22 09:20:30;;;;;;;35.47;5.60;;;;;;;;;;5040883;28;20048;-64
2022/02/22 09:22:57;;;;;;;31.52;5.75;;;;;;;;;;5042121;28;20086;-64
2022/02/22 09:25:24;;;;;;;28.50;5.00;;;;;;;;;;5040534;28;20146;-64
2022/02/22 09:27:51;;;;;;;32.15;5.63;;;;;;;;;;5075724;28;20151;-64
2022/02/22 09:30:18;;;;;;;42.25;6.25;;;;;;;;;;5058725;28;20052;-64
2022/02/22 09:32:45;;;;;;;34.65;6.35;;;;;;;;;;5049424;28;20040;-64
2022/02/22 09:35:15;;;;;;;37.20;7.25;;;;;;;;;;5040507;28;20404;-64
2022/02/22 09:37:41;;;;;;;35.85;7.63;;;;;;;;;;5043791;28;20079;-64
2022/02/22 09:40:07;;;;;;;44.05;7.00;;;;;;;;;;5046970;28;20064;-64
2022/02/22 09:42:34;;;;;;;45.03;7.63;;;;;;;;;;5041319;28;20400;-64
2022/02/22 09:45:00;;;;;;;43.08;7.93;;;;;;;;;;5044159;28;20044;-64
2022/02/22 09:47:26;;;;;;;37.30;8.30;;;;;;;;;;5039978;28;20092;-64
2022/02/22 09:49:53;;;;;;;39.65;7.38;;;;;;;;;;5043381;28;20154;-64
2022/02/22 09:52:19;;;;;;;38.25;9.25;;;;;;;;;;5041811;28;20044;-64
2022/02/22 09:54:45;;;;;;;44.67;8.48;;;;;;;;;;5048855;28;20047;-64
2022/02/22 09:57:12;;;;;;;44.92;9.93;;;;;;;;;;5039059;28;20454;-64
2022/02/22 09:59:38;;;;;;;43.58;9.27;;;;;;;;;;5053786;28;20052;-64
2022/02/22 10:02:05;;;;;;;40.70;8.77;;;;;;;;;;5043883;28;20052;-64
2022/02/22 10:04:34;;;;;;;46.58;9.27;;;;;;;;;;5049124;28;20049;-64
2022/02/22 10:07:02;;;;;;;47.45;9.98;;;;;;;;;;5070260;28;20133;-64
2022/02/22 10:09:28;;;;;;;50.28;10.27;;;;;;;;;;5037489;28;20048;-64
2022/02/22 10:11:55;;;;;;;52.08;9.38;;;;;;;;;;5031934;28;20135;-64
2022/02/22 10:14:22;;;;;;;47.38;10.02;;;;;;;;;;5048928;28;20444;-64
2022/02/22 10:16:49;;;;;;;49.13;9.85;;;;;;;;;;5041926;28;20128;-64
2022/02/22 10:19:16;;;;;;;50.67;8.75;;;;;;;;;;5043718;28;20507;-64
2022/02/22 10:21:43;;;;;;;52.28;9.63;;;;;;;;;;5045049;28;20412;-64
2022/02/22 10:24:10;;;;;;;47.35;9.50;;;;;;;;;;5036091;28;20051;-64
2022/02/22 10:26:36;;;;;;;54.65;9.15;;;;;;;;;;5050177;28;20124;-64
2022/02/22 10:29:17;;;;;;;48.47;9.77;;;;;;;;;;5055631;28;20421;-64
2022/02/22 10:31:44;;;;;;;52.25;7.55;;;;;;;;;;5078793;28;20136;-64
2022/02/22 10:34:10;;;;;;;46.70;8.32;;;;;;;;;;5036668;28;20045;-64
2022/02/22 10:36:38;;;;;;;51.47;9.18;;;;;;;;;;5035148;28;20088;-64
2022/02/22 10:39:07;;;;;;;43.15;10.27;;;;;;;;;;5079591;28;20061;-64
2022/02/22 10:41:41;;;;;;;43.13;9.10;;;;;;;;;;5039545;28;20065;-64
2022/02/22 10:44:08;;;;;;;44.88;8.00;;;;;;;;;;5039531;28;20499;-64
2022/02/22 10:46:37;;;;;;;50.22;10.43;;;;;;;;;;5040388;28;20178;-64
2022/02/22 10:49:03;;;;;;;40.75;9.68;;;;;;;;;;5035479;28;20520;-64
2022/02/22 10:51:35;;;;;;;46.35;8.32;;;;;;;;;;5037993;28;20044;-64
2022/02/22 10:54:01;;;;;;;50.13;8.88;;;;;;;;;;5039949;28;20056;-64
2022/02/22 10:56:30;;;;;;;47.97;9.02;;;;;;;;;;5047577;28;20095;-64
2022/02/22 10:58:57;;;;;;;48.67;9.73;;;;;;;;;;5061447;28;20114;-64
2022/02/22 11:01:23;;;;;;;37.58;7.82;;;;;;;;;;5040328;28;20041;-64
2022/02/22 11:03:50;;;;;;;40.67;10.15;;;;;;;;;;5039948;28;20131;-64
2022/02/22 11:06:19;;;;;;;39.58;6.78;;;;;;;;;;5040113;28;20158;-63
2022/02/22 11:08:46;;;;;;;52.88;7.38;;;;;;;;;;5038906;28;20077;-64
2022/02/22 11:11:16;;;;;;;48.65;7.75;;;;;;;;;;5043486;28;20124;-64
2022/02/22 11:13:43;;;;;;;36.63;8.27;;;;;;;;;;5039647;28;20077;-64
2022/02/22 11:16:10;;;;;;;36.58;7.55;;;;;;;;;;5042057;28;20061;-64
2022/02/22 11:18:46;;;;;;;44.80;8.63;;;;;;;;;;5042618;28;20050;-64
2022/02/22 11:21:12;;;;;;;49.40;9.52;;;;;;;;;;5042785;28;20112;-64
2022/02/22 11:23:39;;;;;;;38.25;8.75;;;;;;;;;;5046185;28;20123;-65
2022/02/22 11:26:06;;;;;;;34.75;7.75;;;;;;;;;;5042146;28;20056;-64
2022/02/22 11:28:36;;;;;;;45.78;9.55;;;;;;;;;;5041182;28;20045;-64
2022/02/22 11:31:03;;;;;;;34.47;7.95;;;;;;;;;;5075178;28;20137;-64
2022/02/22 11:33:37;;;;;;;41.15;7.88;;;;;;;;;;5043274;28;20042;-65
2022/02/22 11:36:07;;;;;;;48.42;9.23;;;;;;;;;;5040128;28;20052;-65
2022/02/22 11:38:40;;;;;;;53.85;10.07;;;;;;;;;;5038442;28;20047;-64
2022/02/22 11:41:14;;;;;;;53.22;9.70;;;;;;;;;;5080742;28;20068;-64
2022/02/22 11:43:50;;;;;;;50.67;9.48;;;;;;;;;;5048451;28;20055;-63
2022/02/22 11:46:16;;;;;;;49.25;11.48;;;;;;;;;;5041456;28;20081;-64
2022/02/22 11:48:43;;;;;;;45.17;9.75;;;;;;;;;;5043672;28;20132;-64
2022/02/22 11:51:12;;;;;;;44.63;10.38;;;;;;;;;;5040302;28;20068;-64
2022/02/22 11:53:38;;;;;;;46.40;9.25;;;;;;;;;;5039786;28;20059;-64
2022/02/22 11:56:05;;;;;;;41.33;8.95;;;;;;;;;;5032630;28;20118;-64
2022/02/22 11:58:36;;;;;;;43.67;10.20;;;;;;;;;;5067960;28;20045;-64
2022/02/22 12:01:05;;;;;;;40.92;8.80;;;;;;;;;;5048308;28;20126;-65
2022/02/22 12:03:43;;;;;;;46.20;8.55;;;;;;;;;;5039248;28;20049;-64
2022/02/22 12:06:09;;;;;;;51.72;10.60;;;;;;;;;;5035538;28;20058;-64
2022/02/22 12:08:41;;;;;;;42.92;9.77;;;;;;;;;;5037269;28;20029;-64
2022/02/22 12:11:10;;;;;;;54.67;10.68;;;;;;;;;;5040254;28;20045;-64
2022/02/22 12:13:41;;;;;;;53.85;10.55;;;;;;;;;;5044531;28;20128;-65
2022/02/22 12:16:13;;;;;;;62.53;12.93;;;;;;;;;;5045190;28;20104;-64
2022/02/22 12:18:42;;;;;;;61.75;13.85;;;;;;;;;;5047942;28;20056;-64
2022/02/22 12:21:08;;;;;;;62.22;11.45;;;;;;;;;;5066771;28;20057;-64
2022/02/22 12:23:37;;;;;;;53.03;11.55;;;;;;;;;;5044791;28;20033;-64
2022/02/22 12:26:06;;;;;;;57.63;12.40;;;;;;;;;;5080119;28;20045;-64
2022/02/22 12:28:32;;;;;;;52.83;13.90;;;;;;;;;;5036457;28;20102;-64
2022/02/22 12:30:59;;;;;;;69.82;16.77;;;;;;;;;;5033176;28;20042;-64
2022/02/22 12:33:32;;;;;;;64.53;14.65;;;;;;;;;;5036214;28;20379;-64
2022/02/22 12:35:58;;;;;;;73.60;14.93;;;;;;;;;;5040969;28;20048;-63
2022/02/22 12:38:26;;;;;;;52.45;14.13;;;;;;;;;;5039597;28;20052;-64
2022/02/22 12:40:53;;;;;;;58.92;14.63;;;;;;;;;;5036230;28;20132;-64
2022/02/22 12:43:20;;;;;;;63.80;16.25;;;;;;;;;;5038106;28;20393;-64
2022/02/22 12:45:50;;;;;;;58.13;15.98;;;;;;;;;;5036225;28;20060;-64
2022/02/22 12:48:18;;;;;;;48.05;14.45;;;;;;;;;;5040455;28;20094;-64
2022/02/22 12:50:52;;;;;;;49.15;13.65;;;;;;;;;;5037012;28;20041;-64
2022/02/22 12:53:25;;;;;;;50.45;15.77;;;;;;;;;;5077190;28;20132;-64
2022/02/22 12:55:52;;;;;;;58.88;15.57;;;;;;;;;;5040815;28;20501;-64
2022/02/22 12:58:19;;;;;;;58.70;16.88;;;;;;;;;;5070567;28;20049;-63
2022/02/22 13:00:45;;;;;;;60.53;16.30;;;;;;;;;;5074502;28;20704;-63
2022/02/22 13:03:14;;;;;;;67.10;17.95;;;;;;;;;;5036986;28;20136;-63
2022/02/22 13:05:41;;;;;;;66.65;17.40;;;;;;;;;;5043480;28;20055;-63
2022/02/22 13:08:08;;;;;;;63.70;15.25;;;;;;;;;;5046798;28;20201;-63
2022/02/22 13:10:40;;;;;;;53.75;15.05;;;;;;;;;;5042824;28;20481;-63
2022/02/22 13:13:07;;;;;;;65.13;17.52;;;;;;;;;;5074831;28;20060;-63
2022/02/22 13:15:33;;;;;;;60.10;16.50;;;;;;;;;;5041639;28;20111;-63
2022/02/22 13:18:09;;;;;;;66.82;16.08;;;;;;;;;;5044351;28;20055;-63
2022/02/22 13:20:39;;;;;;;55.28;15.90;;;;;;;;;;5034489;28;20060;-63
2022/02/22 13:23:09;;;;;;;76.45;18.08;;;;;;;;;;5076763;28;20059;-63
2022/02/22 13:25:37;;;;;;;71.35;16.98;;;;;;;;;;5042051;28;20036;-63
2022/02/22 13:28:03;;;;;;;68.38;19.30;;;;;;;;;;5072172;28;20049;-63
2022/02/22 13:30:30;;;;;;;68.43;18.35;;;;;;;;;;5039897;28;20045;-63
2022/02/22 13:33:03;;;;;;;64.65;17.77;;;;;;;;;;5043614;28;20045;-63
2022/02/22 13:35:30;;;;;;;68.03;18.25;;;;;;;;;;5041680;28;20044;-63
2022/02/22 13:37:57;;;;;;;69.30;16.95;;;;;;;;;;5040722;28;20064;-64
2022/02/22 13:40:27;;;;;;;60.85;17.60;;;;;;;;;;5043058;28;20045;-64
2022/02/22 13:43:02;;;;;;;57.75;17.25;;;;;;;;;;5039772;28;20057;-64
2022/02/22 13:45:31;;;;;;;71.47;17.42;;;;;;;;;;5075728;28;20045;-64
2022/02/22 13:48:01;;;;;;;67.15;15.63;;;;;;;;;;5046318;28;20056;-63
2022/02/22 13:50:27;;;;;;;61.05;13.70;;;;;;;;;;5040926;28;20045;-64
2022/02/22 13:52:55;;;;;;;61.17;15.35;;;;;;;;;;5041455;28;20049;-64
2022/02/22 13:55:22;;;;;;;45.17;10.68;;;;;;;;;;5041710;28;20053;-64
2022/02/22 13:57:49;;;;;;;50.08;9.38;;;;;;;;;;5047012;28;20045;-64
2022/02/22 14:00:15;;;;;;;35.35;7.75;;;;;;;;;;5042733;28;20045;-63
2022/02/22 14:02:42;;;;;;;42.90;7.63;;;;;;;;;;5069155;28;20459;-63
2022/02/22 14:05:09;;;;;;;42.88;7.63;;;;;;;;;;5040371;28;20053;-64
2022/02/22 14:07:38;;;;;;;39.85;8.48;;;;;;;;;;5044260;28;20033;-63
2022/02/22 14:10:05;;;;;;;38.70;6.88;;;;;;;;;;5073089;28;20041;-63
2022/02/22 14:12:32;;;;;;;37.17;6.50;;;;;;;;;;5038756;28;20065;-63
2022/02/22 14:14:58;;;;;;;46.38;7.55;;;;;;;;;;5035437;28;20072;-63
2022/02/22 14:17:24;;;;;;;47.10;7.47;;;;;;;;;;5037845;28;20053;-64
2022/02/22 14:19:50;;;;;;;40.42;7.20;;;;;;;;;;5049905;28;20178;-63
2022/02/22 14:22:19;;;;;;;41.20;6.93;;;;;;;;;;5072821;28;20156;-62
2022/02/22 14:24:45;;;;;;;38.42;6.70;;;;;;;;;;5047230;28;20040;-64
2022/02/22 14:27:12;;;;;;;42.65;7.15;;;;;;;;;;5037407;28;20038;-63